sensor_id;sensor_type;location;lat;lon;timestamp;temperature;humidity
44855;DHT22;30591;48.228;16.398;2023-04-25T00:00:32;9.90;99.90
44855;DHT22;30591;48.228;16.398;2023-04-25T00:02:59;10.00;99.90
44855;DHT22;30591;48.228;16.398;2023-04-25T00:05:28;9.90;99.90
44855;DHT22;30591;48.228;16.398;2023-04-25T00:07:57;9.80;99.90
44855;DHT22;30591;48.228;16.398;2023-04-25T00:10:25;9.80;99.90
44855;DHT22;30591;48.228;16.398;2023-04-25T00:12:52;9.90;99.90
44855;DHT22;30591;48.228;16.398;2023-04-25T00:15:20;9.80;99.90
44855;DHT22;30591;48.228;16.398;2023-04-25T00:17:48;9.80;99.90
44855;DHT22;30591;48.228;16.398;2023-04-25T00:20:15;9.70;99.90
44855;DHT22;30591;48.228;16.398;2023-04-25T00:22:43;9.70;99.90
44855;DHT22;30591;48.228;16.398;2023-04-25T00:25:10;9.80;99.90
44855;DHT22;30591;48.228;16.398;2023-04-25T00:27:37;9.70;99.90
44855;DHT22;30591;48.228;16.398;2023-04-25T00:30:07;9.70;99.90
44855;DHT22;30591;48.228;16.398;2023-04-25T00:32:34;9.70;99.90
44855;DHT22;30591;48.228;16.398;2023-04-25T00:35:02;9.80;99.90
44855;DHT22;30591;48.228;16.398;2023-04-25T00:37:29;9.70;99.90
44855;DHT22;30591;48.228;16.398;2023-04-25T00:39:58;9.70;99.90
44855;DHT22;30591;48.228;16.398;2023-04-25T00:42:26;9.70;99.90
44855;DHT22;30591;48.228;16.398;2023-04-25T00:44:54;9.70;99.90
44855;DHT22;30591;48.228;16.398;2023-04-25T00:47:22;9.70;99.90
44855;DHT22;30591;48.228;16.398;2023-04-25T00:49:50;9.70;99.90
44855;DHT22;30591;48.228;16.398;2023-04-25T00:52:18;9.70;99.90
44855;DHT22;30591;48.228;16.398;2023-04-25T00:54:46;9.70;99.90
44855;DHT22;30591;48.228;16.398;2023-04-25T00:57:14;9.70;99.90
44855;DHT22;30591;48.228;16.398;2023-04-25T00:59:44;9.70;99.90
44855;DHT22;30591;48.228;16.398;2023-04-25T01:02:13;9.70;99.90
44855;DHT22;30591;48.228;16.398;2023-04-25T01:04:41;9.60;99.90
44855;DHT22;30591;48.228;16.398;2023-04-25T01:07:10;9.70;99.90
44855;DHT22;30591;48.228;16.398;2023-04-25T01:09:38;9.70;99.90
44855;DHT22;30591;48.228;16.398;2023-04-25T01:12:05;9.70;99.90
44855;DHT22;30591;48.228;16.398;2023-04-25T01:14:33;9.60;99.90
44855;DHT22;30591;48.228;16.398;2023-04-25T01:17:01;9.70;99.90
44855;DHT22;30591;48.228;16.398;2023-04-25T01:19:29;9.70;99.90
44855;DHT22;30591;48.228;16.398;2023-04-25T01:21:57;9.70;99.90
44855;DHT22;30591;48.228;16.398;2023-04-25T01:24:25;9.60;99.90
44855;DHT22;30591;48.228;16.398;2023-04-25T01:26:55;9.60;99.90
44855;DHT22;30591;48.228;16.398;2023-04-25T01:29:25;9.70;99.90
44855;DHT22;30591;48.228;16.398;2023-04-25T01:31:53;9.60;99.90
44855;DHT22;30591;48.228;16.398;2023-04-25T01:34:21;9.60;99.90
44855;DHT22;30591;48.228;16.398;2023-04-25T01:36:49;9.50;99.90
44855;DHT22;30591;48.228;16.398;2023-04-25T01:39:18;9.50;99.90
44855;DHT22;30591;48.228;16.398;2023-04-25T01:41:46;9.50;99.90
44855;DHT22;30591;48.228;16.398;2023-04-25T01:44:14;9.50;99.90
44855;DHT22;30591;48.228;16.398;2023-04-25T01:46:42;9.50;99.90
44855;DHT22;30591;48.228;16.398;2023-04-25T01:49:10;9.50;99.90
44855;DHT22;30591;48.228;16.398;2023-04-25T01:51:38;9.50;99.90
44855;DHT22;30591;48.228;16.398;2023-04-25T01:54:06;9.50;99.90
44855;DHT22;30591;48.228;16.398;2023-04-25T01:56:37;9.50;99.90
44855;DHT22;30591;48.228;16.398;2023-04-25T01:59:06;9.50;99.90
44855;DHT22;30591;48.228;16.398;2023-04-25T02:01:59;9.50;99.90
44855;DHT22;30591;48.228;16.398;2023-04-25T02:04:32;9.50;99.90
44855;DHT22;30591;48.228;16.398;2023-04-25T02:07:02;9.50;99.90
44855;DHT22;30591;48.228;16.398;2023-04-25T02:09:47;9.50;99.90
44855;DHT22;30591;48.228;16.398;2023-04-25T02:12:16;9.50;99.90
44855;DHT22;30591;48.228;16.398;2023-04-25T02:15:05;9.50;99.90
44855;DHT22;30591;48.228;16.398;2023-04-25T02:17:38;9.50;99.90
44855;DHT22;30591;48.228;16.398;2023-04-25T02:20:06;9.50;99.90
44855;DHT22;30591;48.228;16.398;2023-04-25T02:22:34;9.50;99.90
44855;DHT22;30591;48.228;16.398;2023-04-25T02:25:05;9.50;99.90
44855;DHT22;30591;48.228;16.398;2023-04-25T02:27:33;9.50;99.90
44855;DHT22;30591;48.228;16.398;2023-04-25T02:30:00;9.50;99.90
44855;DHT22;30591;48.228;16.398;2023-04-25T02:32:28;9.50;99.90
44855;DHT22;30591;48.228;16.398;2023-04-25T02:34:55;9.40;99.90
44855;DHT22;30591;48.228;16.398;2023-04-25T02:37:26;9.50;99.90
44855;DHT22;30591;48.228;16.398;2023-04-25T02:39:53;9.40;99.90
44855;DHT22;30591;48.228;16.398;2023-04-25T02:42:20;9.40;99.90
44855;DHT22;30591;48.228;16.398;2023-04-25T02:44:49;9.40;99.90
44855;DHT22;30591;48.228;16.398;2023-04-25T02:47:16;9.30;99.90
44855;DHT22;30591;48.228;16.398;2023-04-25T02:49:44;9.30;99.90
44855;DHT22;30591;48.228;16.398;2023-04-25T02:52:12;9.30;99.90
44855;DHT22;30591;48.228;16.398;2023-04-25T02:54:40;9.20;99.90
44855;DHT22;30591;48.228;16.398;2023-04-25T02:57:08;9.20;99.90
44855;DHT22;30591;48.228;16.398;2023-04-25T02:59:37;9.20;99.90
44855;DHT22;30591;48.228;16.398;2023-04-25T03:02:04;9.20;99.90
44855;DHT22;30591;48.228;16.398;2023-04-25T03:04:32;9.20;99.90
44855;DHT22;30591;48.228;16.398;2023-04-25T03:07:01;9.10;99.90
44855;DHT22;30591;48.228;16.398;2023-04-25T03:09:28;9.10;99.90
44855;DHT22;30591;48.228;16.398;2023-04-25T03:11:56;9.10;99.90
44855;DHT22;30591;48.228;16.398;2023-04-25T03:14:23;9.10;99.90
44855;DHT22;30591;48.228;16.398;2023-04-25T03:16:51;9.10;99.90
44855;DHT22;30591;48.228;16.398;2023-04-25T03:19:19;9.10;99.90
44855;DHT22;30591;48.228;16.398;2023-04-25T03:21:47;9.00;99.90
44855;DHT22;30591;48.228;16.398;2023-04-25T03:24:15;9.10;99.90
44855;DHT22;30591;48.228;16.398;2023-04-25T03:26:42;9.00;99.90
44855;DHT22;30591;48.228;16.398;2023-04-25T03:29:09;9.00;99.90
44855;DHT22;30591;48.228;16.398;2023-04-25T03:31:38;9.00;99.90
44855;DHT22;30591;48.228;16.398;2023-04-25T03:34:05;8.90;99.90
44855;DHT22;30591;48.228;16.398;2023-04-25T03:36:32;8.90;99.90
44855;DHT22;30591;48.228;16.398;2023-04-25T03:39:00;8.90;99.90
44855;DHT22;30591;48.228;16.398;2023-04-25T03:41:29;8.80;99.90
44855;DHT22;30591;48.228;16.398;2023-04-25T03:44:03;8.90;99.90
44855;DHT22;30591;48.228;16.398;2023-04-25T03:46:30;8.80;99.90
44855;DHT22;30591;48.228;16.398;2023-04-25T03:48:58;8.90;99.90
44855;DHT22;30591;48.228;16.398;2023-04-25T03:51:39;8.90;99.90
44855;DHT22;30591;48.228;16.398;2023-04-25T03:54:07;8.90;99.90
44855;DHT22;30591;48.228;16.398;2023-04-25T03:56:54;8.80;99.90
44855;DHT22;30591;48.228;16.398;2023-04-25T03:59:25;8.80;99.90
44855;DHT22;30591;48.228;16.398;2023-04-25T04:01:53;8.80;99.90
44855;DHT22;30591;48.228;16.398;2023-04-25T04:04:22;8.80;99.90
44855;DHT22;30591;48.228;16.398;2023-04-25T04:06:50;8.80;99.90
44855;DHT22;30591;48.228;16.398;2023-04-25T04:09:24;8.80;99.90
44855;DHT22;30591;48.228;16.398;2023-04-25T04:11:53;8.80;99.90
44855;DHT22;30591;48.228;16.398;2023-04-25T04:14:20;8.80;99.90
44855;DHT22;30591;48.228;16.398;2023-04-25T04:16:51;8.80;99.90
44855;DHT22;30591;48.228;16.398;2023-04-25T04:19:18;8.70;99.90
44855;DHT22;30591;48.228;16.398;2023-04-25T04:21:54;8.70;99.90
44855;DHT22;30591;48.228;16.398;2023-04-25T04:24:21;8.70;99.90
44855;DHT22;30591;48.228;16.398;2023-04-25T04:26:54;8.70;99.90
44855;DHT22;30591;48.228;16.398;2023-04-25T04:29:32;8.80;99.90
44855;DHT22;30591;48.228;16.398;2023-04-25T04:32:20;8.70;99.90
44855;DHT22;30591;48.228;16.398;2023-04-25T04:34:47;8.70;99.90
44855;DHT22;30591;48.228;16.398;2023-04-25T04:37:17;8.70;99.90
44855;DHT22;30591;48.228;16.398;2023-04-25T04:39:45;8.60;99.90
44855;DHT22;30591;48.228;16.398;2023-04-25T04:42:26;8.60;99.90
44855;DHT22;30591;48.228;16.398;2023-04-25T04:45:02;8.60;99.90
44855;DHT22;30591;48.228;16.398;2023-04-25T04:47:54;8.60;99.90
44855;DHT22;30591;48.228;16.398;2023-04-25T04:50:44;8.60;99.90
44855;DHT22;30591;48.228;16.398;2023-04-25T04:53:36;8.60;99.90
44855;DHT22;30591;48.228;16.398;2023-04-25T04:56:18;8.50;99.90
44855;DHT22;30591;48.228;16.398;2023-04-25T04:59:04;8.50;99.90
44855;DHT22;30591;48.228;16.398;2023-04-25T05:02:05;8.50;99.90
44855;DHT22;30591;48.228;16.398;2023-04-25T05:04:44;8.50;99.90
44855;DHT22;30591;48.228;16.398;2023-04-25T05:07:30;8.40;99.90
44855;DHT22;30591;48.228;16.398;2023-04-25T05:10:20;8.40;99.90
44855;DHT22;30591;48.228;16.398;2023-04-25T05:13:05;8.40;99.90
44855;DHT22;30591;48.228;16.398;2023-04-25T05:16:02;8.40;99.90
44855;DHT22;30591;48.228;16.398;2023-04-25T05:18:48;8.40;99.90
44855;DHT22;30591;48.228;16.398;2023-04-25T05:21:35;8.30;99.90
44855;DHT22;30591;48.228;16.398;2023-04-25T05:24:18;8.40;99.90
44855;DHT22;30591;48.228;16.398;2023-04-25T05:27:04;8.40;99.90
44855;DHT22;30591;48.228;16.398;2023-04-25T05:29:55;8.30;99.90
44855;DHT22;30591;48.228;16.398;2023-04-25T05:32:26;8.20;99.90
44855;DHT22;30591;48.228;16.398;2023-04-25T05:34:55;8.20;99.90
44855;DHT22;30591;48.228;16.398;2023-04-25T05:37:26;8.10;99.90
44855;DHT22;30591;48.228;16.398;2023-04-25T05:40:10;8.20;99.90
44855;DHT22;30591;48.228;16.398;2023-04-25T05:42:40;8.10;99.90
44855;DHT22;30591;48.228;16.398;2023-04-25T05:45:26;8.10;99.90
44855;DHT22;30591;48.228;16.398;2023-04-25T05:47:54;8.20;99.90
44855;DHT22;30591;48.228;16.398;2023-04-25T05:50:31;8.30;99.90
44855;DHT22;30591;48.228;16.398;2023-04-25T05:53:20;8.30;99.90
44855;DHT22;30591;48.228;16.398;2023-04-25T05:55:56;8.30;99.90
44855;DHT22;30591;48.228;16.398;2023-04-25T05:58:26;8.30;99.90
44855;DHT22;30591;48.228;16.398;2023-04-25T06:00:54;8.40;99.90
44855;DHT22;30591;48.228;16.398;2023-04-25T06:03:22;8.40;99.90
44855;DHT22;30591;48.228;16.398;2023-04-25T06:05:50;8.40;99.90
44855;DHT22;30591;48.228;16.398;2023-04-25T06:08:19;8.50;99.90
44855;DHT22;30591;48.228;16.398;2023-04-25T06:10:47;8.60;99.90
44855;DHT22;30591;48.228;16.398;2023-04-25T06:13:14;8.70;99.90
44855;DHT22;30591;48.228;16.398;2023-04-25T06:15:42;8.90;99.90
44855;DHT22;30591;48.228;16.398;2023-04-25T06:18:11;9.20;99.90
44855;DHT22;30591;48.228;16.398;2023-04-25T06:20:38;9.60;99.90
44855;DHT22;30591;48.228;16.398;2023-04-25T06:23:06;9.90;99.90
44855;DHT22;30591;48.228;16.398;2023-04-25T06:25:45;10.00;99.90
44855;DHT22;30591;48.228;16.398;2023-04-25T06:28:13;10.20;99.90
44855;DHT22;30591;48.228;16.398;2023-04-25T06:30:41;10.40;99.90
44855;DHT22;30591;48.228;16.398;2023-04-25T06:33:13;10.50;99.90
44855;DHT22;30591;48.228;16.398;2023-04-25T06:35:41;10.60;99.90
44855;DHT22;30591;48.228;16.398;2023-04-25T06:38:11;10.80;99.90
44855;DHT22;30591;48.228;16.398;2023-04-25T06:40:42;10.70;99.90
44855;DHT22;30591;48.228;16.398;2023-04-25T06:43:10;10.90;99.90
44855;DHT22;30591;48.228;16.398;2023-04-25T06:45:49;11.00;99.90
44855;DHT22;30591;48.228;16.398;2023-04-25T06:48:19;11.10;99.90
44855;DHT22;30591;48.228;16.398;2023-04-25T06:50:47;11.30;99.90
44855;DHT22;30591;48.228;16.398;2023-04-25T06:53:14;11.40;99.90
44855;DHT22;30591;48.228;16.398;2023-04-25T06:55:45;11.50;99.90
44855;DHT22;30591;48.228;16.398;2023-04-25T06:58:22;11.70;99.90
44855;DHT22;30591;48.228;16.398;2023-04-25T07:01:04;11.70;99.90
44855;DHT22;30591;48.228;16.398;2023-04-25T07:03:31;11.90;99.90
44855;DHT22;30591;48.228;16.398;2023-04-25T07:06:03;11.80;99.90
44855;DHT22;30591;48.228;16.398;2023-04-25T07:08:31;12.10;99.90
44855;DHT22;30591;48.228;16.398;2023-04-25T07:10:59;12.30;99.90
44855;DHT22;30591;48.228;16.398;2023-04-25T07:13:27;12.20;99.90
44855;DHT22;30591;48.228;16.398;2023-04-25T07:15:54;12.30;99.90
44855;DHT22;30591;48.228;16.398;2023-04-25T07:18:24;12.30;99.90
44855;DHT22;30591;48.228;16.398;2023-04-25T07:20:51;12.10;99.90
44855;DHT22;30591;48.228;16.398;2023-04-25T07:23:19;12.20;99.90
44855;DHT22;30591;48.228;16.398;2023-04-25T07:25:47;12.30;99.90
44855;DHT22;30591;48.228;16.398;2023-04-25T07:28:19;12.40;99.90
44855;DHT22;30591;48.228;16.398;2023-04-25T07:30:47;12.70;99.90
44855;DHT22;30591;48.228;16.398;2023-04-25T07:33:14;12.50;99.90
44855;DHT22;30591;48.228;16.398;2023-04-25T07:35:42;12.60;99.90
44855;DHT22;30591;48.228;16.398;2023-04-25T07:38:10;12.90;99.90
44855;DHT22;30591;48.228;16.398;2023-04-25T07:40:38;13.30;99.90
44855;DHT22;30591;48.228;16.398;2023-04-25T07:43:08;13.20;99.90
44855;DHT22;30591;48.228;16.398;2023-04-25T07:45:46;12.90;99.90
44855;DHT22;30591;48.228;16.398;2023-04-25T07:48:19;12.90;99.90
44855;DHT22;30591;48.228;16.398;2023-04-25T07:50:48;12.70;99.90
44855;DHT22;30591;48.228;16.398;2023-04-25T07:53:16;12.70;99.90
44855;DHT22;30591;48.228;16.398;2023-04-25T07:55:51;12.60;99.90
44855;DHT22;30591;48.228;16.398;2023-04-25T07:58:20;12.50;99.90
44855;DHT22;30591;48.228;16.398;2023-04-25T08:00:59;13.00;99.90
44855;DHT22;30591;48.228;16.398;2023-04-25T08:03:46;13.30;99.90
44855;DHT22;30591;48.228;16.398;2023-04-25T08:06:21;13.20;99.90
44855;DHT22;30591;48.228;16.398;2023-04-25T08:09:11;13.20;99.90
44855;DHT22;30591;48.228;16.398;2023-04-25T08:11:41;13.30;99.90
44855;DHT22;30591;48.228;16.398;2023-04-25T08:14:12;13.40;99.90
44855;DHT22;30591;48.228;16.398;2023-04-25T08:16:41;13.70;99.90
44855;DHT22;30591;48.228;16.398;2023-04-25T08:19:09;14.00;99.90
44855;DHT22;30591;48.228;16.398;2023-04-25T08:21:38;14.10;99.90
44855;DHT22;30591;48.228;16.398;2023-04-25T08:24:09;14.20;99.90
44855;DHT22;30591;48.228;16.398;2023-04-25T08:26:38;14.40;99.90
44855;DHT22;30591;48.228;16.398;2023-04-25T08:29:07;14.50;99.90
44855;DHT22;30591;48.228;16.398;2023-04-25T08:31:38;14.50;99.90
44855;DHT22;30591;48.228;16.398;2023-04-25T08:34:07;14.60;99.90
44855;DHT22;30591;48.228;16.398;2023-04-25T08:36:42;14.40;99.90
44855;DHT22;30591;48.228;16.398;2023-04-25T08:39:32;14.20;99.90
44855;DHT22;30591;48.228;16.398;2023-04-25T08:42:24;14.30;99.90
44855;DHT22;30591;48.228;16.398;2023-04-25T08:44:53;14.60;99.90
44855;DHT22;30591;48.228;16.398;2023-04-25T08:47:22;14.10;99.90
44855;DHT22;30591;48.228;16.398;2023-04-25T08:49:56;13.60;99.90
44855;DHT22;30591;48.228;16.398;2023-04-25T08:52:24;14.00;99.90
44855;DHT22;30591;48.228;16.398;2023-04-25T08:54:54;14.50;99.90
44855;DHT22;30591;48.228;16.398;2023-04-25T08:57:22;14.90;99.90
44855;DHT22;30591;48.228;16.398;2023-04-25T08:59:52;15.30;99.90
44855;DHT22;30591;48.228;16.398;2023-04-25T09:02:21;15.30;99.90
44855;DHT22;30591;48.228;16.398;2023-04-25T09:04:51;14.70;99.90
44855;DHT22;30591;48.228;16.398;2023-04-25T09:07:18;14.00;99.90
44855;DHT22;30591;48.228;16.398;2023-04-25T09:09:49;13.70;99.90
44855;DHT22;30591;48.228;16.398;2023-04-25T09:12:20;14.20;99.90
44855;DHT22;30591;48.228;16.398;2023-04-25T09:15:06;14.70;99.90
44855;DHT22;30591;48.228;16.398;2023-04-25T09:18:01;14.10;99.90
44855;DHT22;30591;48.228;16.398;2023-04-25T09:20:43;13.40;99.90
44855;DHT22;30591;48.228;16.398;2023-04-25T09:23:14;13.20;99.90
44855;DHT22;30591;48.228;16.398;2023-04-25T09:25:42;13.20;99.90
44855;DHT22;30591;48.228;16.398;2023-04-25T09:28:11;13.10;99.90
44855;DHT22;30591;48.228;16.398;2023-04-25T09:30:38;13.20;99.90
44855;DHT22;30591;48.228;16.398;2023-04-25T09:33:18;13.40;99.90
44855;DHT22;30591;48.228;16.398;2023-04-25T09:35:49;13.70;99.90
44855;DHT22;30591;48.228;16.398;2023-04-25T09:38:33;14.10;99.90
44855;DHT22;30591;48.228;16.398;2023-04-25T09:41:13;14.30;99.90
44855;DHT22;30591;48.228;16.398;2023-04-25T09:43:45;13.90;99.90
44855;DHT22;30591;48.228;16.398;2023-04-25T09:46:14;13.90;99.90
44855;DHT22;30591;48.228;16.398;2023-04-25T09:48:51;13.70;99.90
44855;DHT22;30591;48.228;16.398;2023-04-25T09:51:57;13.90;99.90
44855;DHT22;30591;48.228;16.398;2023-04-25T09:54:30;15.20;99.90
44855;DHT22;30591;48.228;16.398;2023-04-25T09:57:24;16.20;99.90
44855;DHT22;30591;48.228;16.398;2023-04-25T09:59:55;16.70;99.90
44855;DHT22;30591;48.228;16.398;2023-04-25T10:02:26;16.10;99.90
44855;DHT22;30591;48.228;16.398;2023-04-25T10:05:06;15.90;99.90
44855;DHT22;30591;48.228;16.398;2023-04-25T10:07:39;15.20;99.90
44855;DHT22;30591;48.228;16.398;2023-04-25T10:10:13;14.70;99.90
44855;DHT22;30591;48.228;16.398;2023-04-25T10:12:41;14.20;99.90
44855;DHT22;30591;48.228;16.398;2023-04-25T10:15:11;14.20;99.90
44855;DHT22;30591;48.228;16.398;2023-04-25T10:17:39;13.90;99.90
44855;DHT22;30591;48.228;16.398;2023-04-25T10:20:08;14.00;99.90
44855;DHT22;30591;48.228;16.398;2023-04-25T10:22:41;14.30;99.90
44855;DHT22;30591;48.228;16.398;2023-04-25T10:25:09;14.50;99.90
44855;DHT22;30591;48.228;16.398;2023-04-25T10:27:38;14.70;99.90
44855;DHT22;30591;48.228;16.398;2023-04-25T10:30:14;14.80;99.90
44855;DHT22;30591;48.228;16.398;2023-04-25T10:32:44;14.80;99.90
44855;DHT22;30591;48.228;16.398;2023-04-25T10:35:24;14.80;99.90
44855;DHT22;30591;48.228;16.398;2023-04-25T10:38:09;14.70;99.90
44855;DHT22;30591;48.228;16.398;2023-04-25T10:40:37;14.40;99.90
44855;DHT22;30591;48.228;16.398;2023-04-25T10:43:36;14.20;99.90
44855;DHT22;30591;48.228;16.398;2023-04-25T10:46:29;14.10;99.90
44855;DHT22;30591;48.228;16.398;2023-04-25T10:49:00;14.00;99.90
44855;DHT22;30591;48.228;16.398;2023-04-25T10:51:29;13.80;99.90
44855;DHT22;30591;48.228;16.398;2023-04-25T10:54:09;13.80;99.90
44855;DHT22;30591;48.228;16.398;2023-04-25T10:56:38;13.90;99.90
44855;DHT22;30591;48.228;16.398;2023-04-25T10:59:15;13.90;99.90
44855;DHT22;30591;48.228;16.398;2023-04-25T11:09:36;13.20;99.90
44855;DHT22;30591;48.228;16.398;2023-04-25T11:12:06;13.10;99.90
44855;DHT22;30591;48.228;16.398;2023-04-25T11:14:34;13.30;99.90
44855;DHT22;30591;48.228;16.398;2023-04-25T11:17:01;13.40;99.90
44855;DHT22;30591;48.228;16.398;2023-04-25T11:19:30;13.60;99.90
44855;DHT22;30591;48.228;16.398;2023-04-25T11:22:01;13.70;99.90
44855;DHT22;30591;48.228;16.398;2023-04-25T11:24:30;13.70;99.90
44855;DHT22;30591;48.228;16.398;2023-04-25T11:27:00;14.10;99.90
44855;DHT22;30591;48.228;16.398;2023-04-25T11:29:33;14.60;99.90
44855;DHT22;30591;48.228;16.398;2023-04-25T11:32:01;15.70;99.90
44855;DHT22;30591;48.228;16.398;2023-04-25T11:34:30;16.30;99.90
44855;DHT22;30591;48.228;16.398;2023-04-25T11:36:59;16.50;99.90
44855;DHT22;30591;48.228;16.398;2023-04-25T11:39:28;16.70;99.90
44855;DHT22;30591;48.228;16.398;2023-04-25T11:41:56;18.20;99.90
44855;DHT22;30591;48.228;16.398;2023-04-25T11:44:24;18.80;99.90
44855;DHT22;30591;48.228;16.398;2023-04-25T11:46:52;18.40;99.40
44855;DHT22;30591;48.228;16.398;2023-04-25T11:49:19;17.90;99.30
44855;DHT22;30591;48.228;16.398;2023-04-25T11:51:48;20.40;98.20
44855;DHT22;30591;48.228;16.398;2023-04-25T11:54:16;17.10;98.40
44855;DHT22;30591;48.228;16.398;2023-04-25T11:56:45;15.90;99.90
44855;DHT22;30591;48.228;16.398;2023-04-25T11:59:13;15.10;99.50
44855;DHT22;30591;48.228;16.398;2023-04-25T12:01:47;14.70;99.90
44855;DHT22;30591;48.228;16.398;2023-04-25T12:06:47;14.40;99.90
44855;DHT22;30591;48.228;16.398;2023-04-25T12:09:18;14.50;99.80
44855;DHT22;30591;48.228;16.398;2023-04-25T12:11:56;15.20;99.90
44855;DHT22;30591;48.228;16.398;2023-04-25T12:14:27;15.70;99.90
44855;DHT22;30591;48.228;16.398;2023-04-25T12:16:57;15.70;99.90
44855;DHT22;30591;48.228;16.398;2023-04-25T12:19:26;16.30;99.90
44855;DHT22;30591;48.228;16.398;2023-04-25T12:21:53;17.50;99.90
44855;DHT22;30591;48.228;16.398;2023-04-25T12:24:26;16.40;99.90
44855;DHT22;30591;48.228;16.398;2023-04-25T12:27:06;16.40;99.90
44855;DHT22;30591;48.228;16.398;2023-04-25T12:29:36;16.70;99.90
44855;DHT22;30591;48.228;16.398;2023-04-25T12:32:16;17.20;99.90
44855;DHT22;30591;48.228;16.398;2023-04-25T12:34:44;16.30;99.60
44855;DHT22;30591;48.228;16.398;2023-04-25T12:37:12;15.40;99.80
44855;DHT22;30591;48.228;16.398;2023-04-25T12:39:40;14.80;99.90
44855;DHT22;30591;48.228;16.398;2023-04-25T12:42:07;14.50;99.90
44855;DHT22;30591;48.228;16.398;2023-04-25T12:44:35;14.40;99.90
44855;DHT22;30591;48.228;16.398;2023-04-25T12:47:04;13.40;99.90
44855;DHT22;30591;48.228;16.398;2023-04-25T12:49:32;12.40;99.90
44855;DHT22;30591;48.228;16.398;2023-04-25T12:52:00;12.00;99.90
44855;DHT22;30591;48.228;16.398;2023-04-25T12:54:27;11.40;99.90
44855;DHT22;30591;48.228;16.398;2023-04-25T12:56:54;11.40;99.90
44855;DHT22;30591;48.228;16.398;2023-04-25T12:59:22;11.50;99.90
44855;DHT22;30591;48.228;16.398;2023-04-25T13:01:50;11.60;99.90
44855;DHT22;30591;48.228;16.398;2023-04-25T13:04:17;11.80;99.90
44855;DHT22;30591;48.228;16.398;2023-04-25T13:06:45;12.20;99.90
44855;DHT22;30591;48.228;16.398;2023-04-25T13:09:12;12.60;99.90
44855;DHT22;30591;48.228;16.398;2023-04-25T13:11:39;13.10;99.90
44855;DHT22;30591;48.228;16.398;2023-04-25T13:14:08;14.10;99.90
44855;DHT22;30591;48.228;16.398;2023-04-25T13:16:35;15.80;99.90
44855;DHT22;30591;48.228;16.398;2023-04-25T13:19:03;16.40;99.90
44855;DHT22;30591;48.228;16.398;2023-04-25T13:21:31;18.50;99.90
44855;DHT22;30591;48.228;16.398;2023-04-25T13:23:59;20.80;99.90
44855;DHT22;30591;48.228;16.398;2023-04-25T13:26:27;22.90;99.90
44855;DHT22;30591;48.228;16.398;2023-04-25T13:28:54;24.20;96.70
44855;DHT22;30591;48.228;16.398;2023-04-25T13:31:21;24.70;94.70
44855;DHT22;30591;48.228;16.398;2023-04-25T13:33:48;24.80;92.50
44855;DHT22;30591;48.228;16.398;2023-04-25T13:36:16;24.20;92.80
44855;DHT22;30591;48.228;16.398;2023-04-25T13:38:43;24.70;91.70
44855;DHT22;30591;48.228;16.398;2023-04-25T13:41:12;25.20;89.00
44855;DHT22;30591;48.228;16.398;2023-04-25T13:43:46;19.20;94.20
44855;DHT22;30591;48.228;16.398;2023-04-25T13:46:15;16.00;99.50
44855;DHT22;30591;48.228;16.398;2023-04-25T13:49:06;14.50;99.90
44855;DHT22;30591;48.228;16.398;2023-04-25T13:51:40;13.80;99.90
44855;DHT22;30591;48.228;16.398;2023-04-25T13:54:07;13.30;99.90
44855;DHT22;30591;48.228;16.398;2023-04-25T13:56:35;12.70;99.90
44855;DHT22;30591;48.228;16.398;2023-04-25T13:59:02;12.30;99.90
44855;DHT22;30591;48.228;16.398;2023-04-25T14:01:30;12.10;99.90
44855;DHT22;30591;48.228;16.398;2023-04-25T14:04:02;11.70;99.90
44855;DHT22;30591;48.228;16.398;2023-04-25T14:06:32;11.50;99.90
44855;DHT22;30591;48.228;16.398;2023-04-25T14:09:00;11.30;99.90
44855;DHT22;30591;48.228;16.398;2023-04-25T14:11:28;11.10;99.90
44855;DHT22;30591;48.228;16.398;2023-04-25T14:13:55;11.20;99.90
44855;DHT22;30591;48.228;16.398;2023-04-25T14:16:23;11.40;99.90
44855;DHT22;30591;48.228;16.398;2023-04-25T14:18:50;11.70;99.90
44855;DHT22;30591;48.228;16.398;2023-04-25T14:21:17;12.10;99.90
44855;DHT22;30591;48.228;16.398;2023-04-25T14:23:45;12.40;99.90
44855;DHT22;30591;48.228;16.398;2023-04-25T14:26:13;12.50;99.90
44855;DHT22;30591;48.228;16.398;2023-04-25T14:28:41;12.60;99.90
44855;DHT22;30591;48.228;16.398;2023-04-25T14:31:09;12.60;99.90
44855;DHT22;30591;48.228;16.398;2023-04-25T14:33:36;12.40;99.90
44855;DHT22;30591;48.228;16.398;2023-04-25T14:36:07;12.30;99.90
44855;DHT22;30591;48.228;16.398;2023-04-25T14:38:34;12.10;99.90
44855;DHT22;30591;48.228;16.398;2023-04-25T14:41:01;11.70;99.90
44855;DHT22;30591;48.228;16.398;2023-04-25T14:43:29;11.70;99.90
44855;DHT22;30591;48.228;16.398;2023-04-25T14:45:56;11.70;99.90
44855;DHT22;30591;48.228;16.398;2023-04-25T14:48:24;11.90;99.90
44855;DHT22;30591;48.228;16.398;2023-04-25T14:50:52;12.00;99.90
44855;DHT22;30591;48.228;16.398;2023-04-25T14:53:20;11.90;99.90
44855;DHT22;30591;48.228;16.398;2023-04-25T14:55:47;11.90;99.90
44855;DHT22;30591;48.228;16.398;2023-04-25T14:58:15;12.00;99.90
44855;DHT22;30591;48.228;16.398;2023-04-25T15:00:43;12.10;99.90
44855;DHT22;30591;48.228;16.398;2023-04-25T15:03:11;12.20;99.90
44855;DHT22;30591;48.228;16.398;2023-04-25T15:05:40;12.20;99.90
44855;DHT22;30591;48.228;16.398;2023-04-25T15:08:08;12.20;99.90
44855;DHT22;30591;48.228;16.398;2023-04-25T15:10:36;12.20;99.90
44855;DHT22;30591;48.228;16.398;2023-04-25T15:13:04;12.30;99.90
44855;DHT22;30591;48.228;16.398;2023-04-25T15:15:31;12.40;99.90
44855;DHT22;30591;48.228;16.398;2023-04-25T15:17:58;12.20;99.90
44855;DHT22;30591;48.228;16.398;2023-04-25T15:20:26;12.20;99.90
44855;DHT22;30591;48.228;16.398;2023-04-25T15:22:56;12.10;99.90
44855;DHT22;30591;48.228;16.398;2023-04-25T15:25:24;12.00;99.90
44855;DHT22;30591;48.228;16.398;2023-04-25T15:27:51;12.40;99.90
44855;DHT22;30591;48.228;16.398;2023-04-25T15:30:21;12.70;99.90
44855;DHT22;30591;48.228;16.398;2023-04-25T15:32:49;12.50;99.90
44855;DHT22;30591;48.228;16.398;2023-04-25T15:35:16;12.40;99.90
44855;DHT22;30591;48.228;16.398;2023-04-25T15:37:44;12.50;99.90
44855;DHT22;30591;48.228;16.398;2023-04-25T15:40:14;12.70;99.90
44855;DHT22;30591;48.228;16.398;2023-04-25T15:42:45;12.40;99.90
44855;DHT22;30591;48.228;16.398;2023-04-25T15:45:19;12.30;99.90
44855;DHT22;30591;48.228;16.398;2023-04-25T15:47:48;11.90;99.90
44855;DHT22;30591;48.228;16.398;2023-04-25T15:50:15;11.20;99.90
44855;DHT22;30591;48.228;16.398;2023-04-25T15:52:43;11.00;99.90
44855;DHT22;30591;48.228;16.398;2023-04-25T15:55:10;10.60;99.90
44855;DHT22;30591;48.228;16.398;2023-04-25T15:57:39;10.50;99.90